Time;durP1;ratioP1;P1;durP2;ratioP2;P2;SDS_P1;SDS_P2;PMS_P1;PMS_P2;Temp;Humidity;BMP_temperature;BMP_pressure;BME280_temperature;BME280_humidity;BME280_pressure;Samples;Min_cycle;Max_cycle;Signal;HPM_P1;HPM_P2
2021/01/05 00:01:13;;;;;;;0.83;0.63;;;;;;;2.34;100.00;101211.03;5073061;28;20445;-66
2021/01/05 00:03:39;;;;;;;2.50;0.77;;;;;;;2.36;100.00;101210.84;5072695;28;20499;-66
2021/01/05 00:06:05;;;;;;;1.63;1.53;;;;;;;2.42;100.00;101199.19;5066111;28;20979;-66
2021/01/05 00:08:32;;;;;;;0.43;0.43;;;;;;;2.43;100.00;101206.16;5052891;28;20488;-66
2021/01/05 00:10:59;;;;;;;0.50;0.50;;;;;;;2.44;100.00;101205.16;5052445;28;21037;-66
2021/01/05 00:13:25;;;;;;;0.70;0.70;;;;;;;2.39;100.00;101207.66;5052664;28;20514;-66
2021/01/05 00:15:51;;;;;;;0.60;0.60;;;;;;;2.38;100.00;101192.69;5052444;28;20973;-66
2021/01/05 00:18:17;;;;;;;0.50;0.50;;;;;;;2.42;100.00;101196.53;5052874;28;20472;-66
2021/01/05 00:20:43;;;;;;;3.50;0.60;;;;;;;2.37;100.00;101205.25;5052795;28;20465;-67
2021/01/05 00:23:10;;;;;;;3.23;1.50;;;;;;;2.27;100.00;101200.47;5052351;28;20572;-66
2021/01/05 00:25:36;;;;;;;2.77;2.43;;;;;;;2.30;100.00;101209.06;5052779;28;20422;-66
2021/01/05 00:28:03;;;;;;;3.13;0.87;;;;;;;2.26;100.00;101200.72;5052527;28;20935;-66
2021/01/05 00:30:29;;;;;;;0.40;0.30;;;;;;;2.20;100.00;101201.63;5052785;28;20447;-66
2021/01/05 00:32:56;;;;;;;1.90;0.67;;;;;;;2.16;100.00;101195.91;5052408;28;20513;-66
2021/01/05 00:35:25;;;;;;;0.57;0.57;;;;;;;2.21;100.00;101209.41;5052845;28;20445;-66
2021/01/05 00:37:52;;;;;;;0.40;0.20;;;;;;;2.06;100.00;101208.22;5052746;28;20481;-66
2021/01/05 00:40:20;;;;;;;0.60;0.60;;;;;;;2.10;100.00;101202.19;5052841;28;20821;-66
2021/01/05 00:42:47;;;;;;;2.70;0.57;;;;;;;2.19;100.00;101210.69;5052632;28;20489;-67
2021/01/05 00:45:20;;;;;;;17.90;2.87;;;;;;;2.12;100.00;101216.13;5052657;28;20492;-66
2021/01/05 00:47:46;;;;;;;1.07;0.97;;;;;;;2.15;100.00;101218.34;5056029;28;20896;-67
2021/01/05 00:50:13;;;;;;;0.40;0.30;;;;;;;2.15;100.00;101215.66;5056514;28;20477;-66
2021/01/05 00:52:39;;;;;;;1.30;1.20;;;;;;;2.19;100.00;101221.38;5055962;28;20997;-66
2021/01/05 00:55:07;;;;;;;1.87;1.77;;;;;;;2.22;100.00;101223.59;5056465;28;20525;-66
2021/01/05 00:57:33;;;;;;;0.60;0.60;;;;;;;2.28;100.00;101220.81;5056057;28;20480;-66
2021/01/05 01:00:00;;;;;;;4.40;0.90;;;;;;;2.35;100.00;101219.91;5056250;28;20521;-66
2021/01/05 01:02:27;;;;;;;0.40;0.30;;;;;;;2.35;100.00;101222.56;5056154;28;20452;-66
2021/01/05 01:04:53;;;;;;;7.53;1.37;;;;;;;2.33;100.00;101222.78;5056232;28;20477;-65
2021/01/05 01:07:19;;;;;;;6.07;2.03;;;;;;;2.33;100.00;101216.63;5056132;28;20449;-65
2021/01/05 01:09:45;;;;;;;0.40;0.30;;;;;;;2.35;100.00;101225.25;5056058;28;20446;-67
2021/01/05 01:12:17;;;;;;;0.60;0.53;;;;;;;2.42;100.00;101228.59;5056120;28;20525;-66
2021/01/05 01:14:45;;;;;;;2.70;1.27;;;;;;;2.41;100.00;101221.66;5055563;28;20515;-66
2021/01/05 01:17:11;;;;;;;0.60;0.50;;;;;;;2.45;100.00;101220.13;5056021;28;20469;-65
2021/01/05 01:19:38;;;;;;;1.13;1.13;;;;;;;2.32;100.00;101210.47;5055936;28;20444;-66
2021/01/05 01:22:05;;;;;;;0.50;0.40;;;;;;;2.39;100.00;101221.03;5055898;28;20474;-65
2021/01/05 01:24:32;;;;;;;0.60;0.53;;;;;;;2.49;100.00;101215.97;5055447;28;20510;-66
2021/01/05 01:26:58;;;;;;;0.60;0.60;;;;;;;2.54;100.00;101216.06;5055822;28;20550;-66
2021/01/05 01:29:26;;;;;;;0.73;0.60;;;;;;;2.52;100.00;101215.47;5055544;28;20444;-67
2021/01/05 01:31:53;;;;;;;1.90;0.90;;;;;;;2.51;100.00;101209.31;5055541;28;20512;-65
2021/01/05 01:34:22;;;;;;;7.87;3.83;;;;;;;2.43;100.00;101217.69;5055287;28;20496;-64
2021/01/05 01:36:57;;;;;;;0.40;0.30;;;;;;;2.38;100.00;101214.88;5055614;28;20438;-66
2021/01/05 01:39:24;;;;;;;1.60;1.27;;;;;;;2.36;100.00;101210.84;5055241;28;20948;-67
2021/01/05 01:41:50;;;;;;;0.40;0.30;;;;;;;2.37;100.00;101218.59;5055592;28;20473;-66
2021/01/05 01:44:19;;;;;;;0.40;0.30;;;;;;;2.35;100.00;101212.69;5055123;28;20997;-65
2021/01/05 01:46:46;;;;;;;0.50;0.40;;;;;;;2.39;100.00;101218.38;5055476;28;20449;-66
2021/01/05 01:49:13;;;;;;;2.10;0.60;;;;;;;2.42;100.00;101212.56;5055452;28;20466;-66
2021/01/05 01:51:41;;;;;;;0.40;0.30;;;;;;;2.38;100.00;101217.56;5055291;28;20579;-66
2021/01/05 01:54:31;;;;;;;0.40;0.20;;;;;;;2.38;100.00;101224.75;5054944;28;20508;-65
2021/01/05 01:57:24;;;;;;;0.87;0.87;;;;;;;2.39;100.00;101223.72;5054838;28;20431;-66
2021/01/05 02:00:08;;;;;;;1.37;1.27;;;;;;;2.37;100.00;101231.97;5052214;28;20465;-66
2021/01/05 02:02:51;;;;;;;0.40;0.40;;;;;;;2.43;100.00;101225.69;5054393;28;20993;-65
2021/01/05 02:05:20;;;;;;;0.70;0.47;;;;;;;2.50;100.00;101228.28;5054758;28;20429;-66
2021/01/05 02:08:00;;;;;;;0.40;0.30;;;;;;;2.47;100.00;101223.38;5055006;28;20448;-67
2021/01/05 02:10:50;;;;;;;5.13;1.20;;;;;;;2.41;100.00;101227.00;5055032;28;20458;-66
2021/01/05 02:13:39;;;;;;;1.97;0.70;;;;;;;2.34;100.00;101220.91;5054924;28;20501;-66
2021/01/05 02:16:21;;;;;;;0.60;0.47;;;;;;;2.27;100.00;101221.84;5054644;28;20441;-66
2021/01/05 02:18:52;;;;;;;0.97;0.87;;;;;;;2.20;100.00;101223.81;5054892;28;20460;-66
2021/01/05 02:21:23;;;;;;;1.47;1.27;;;;;;;2.18;100.00;101225.91;5054537;28;20474;-65
2021/01/05 02:24:03;;;;;;;0.40;0.30;;;;;;;2.23;100.00;101223.34;5054332;28;21006;-66
2021/01/05 02:26:37;;;;;;;1.20;1.20;;;;;;;2.25;100.00;101220.44;5054840;28;20429;-66
2021/01/05 02:29:09;;;;;;;1.70;1.60;;;;;;;2.28;100.00;101220.00;5054472;28;20464;-66
2021/01/05 02:31:44;;;;;;;6.23;1.13;;;;;;;2.34;100.00;101218.25;5054683;28;20465;-65
2021/01/05 02:34:24;;;;;;;0.40;0.30;;;;;;;2.31;100.00;101218.72;5054240;28;20986;-66
2021/01/05 02:37:12;;;;;;;0.40;0.30;;;;;;;2.30;100.00;101209.06;5054563;28;20434;-67
2021/01/05 02:40:02;;;;;;;1.23;0.50;;;;;;;2.24;100.00;101214.28;5054498;28;20519;-66
2021/01/05 02:42:58;;;;;;;0.40;0.40;;;;;;;2.32;100.00;101201.63;5054359;28;20467;-67
2021/01/05 02:45:27;;;;;;;0.70;0.60;;;;;;;2.37;100.00;101196.41;5054109;28;20935;-67
2021/01/05 02:48:19;;;;;;;1.10;0.80;;;;;;;2.46;100.00;101195.03;5053992;28;20535;-66
2021/01/05 02:51:22;;;;;;;0.40;0.30;;;;;;;2.53;100.00;101199.22;5054292;28;20470;-65
2021/01/05 02:54:20;;;;;;;0.40;0.30;;;;;;;2.55;100.00;101196.31;5053758;28;20465;-67
2021/01/05 02:57:11;;;;;;;0.40;0.30;;;;;;;2.49;100.00;101202.59;5053834;28;20981;-65
2021/01/05 03:00:08;;;;;;;0.70;0.70;;;;;;;2.48;100.00;101196.44;5054061;28;20445;-66
2021/01/05 03:03:01;;;;;;;0.40;0.30;;;;;;;2.49;100.00;101199.91;5053994;28;20454;-66
2021/01/05 03:05:27;;;;;;;0.50;0.40;;;;;;;2.39;100.00;101191.63;5053971;28;20477;-66
2021/01/05 03:07:53;;;;;;;0.80;0.80;;;;;;;2.42;100.00;101199.19;5053531;28;20496;-66
2021/01/05 03:10:29;;;;;;;0.40;0.40;;;;;;;2.44;100.00;101202.47;5053139;28;20962;-65
2021/01/05 03:13:27;;;;;;;0.40;0.30;;;;;;;2.31;100.00;101195.50;5053736;28;20520;-65
2021/01/05 03:15:58;;;;;;;0.97;0.87;;;;;;;2.31;100.00;101195.50;5053857;28;20457;-66
2021/01/05 03:18:36;;;;;;;0.40;0.30;;;;;;;2.31;100.00;101197.34;5053799;28;20427;-66
2021/01/05 03:21:06;;;;;;;0.60;0.60;;;;;;;2.27;100.00;101197.00;5053755;28;20464;-66
2021/01/05 03:23:35;;;;;;;0.60;0.50;;;;;;;2.30;100.00;101196.50;5054397;28;20508;-66
2021/01/05 03:26:08;;;;;;;0.50;0.40;;;;;;;2.33;100.00;101192.56;5053656;28;20448;-66
2021/01/05 03:28:36;;;;;;;6.10;0.80;;;;;;;2.24;100.00;101195.56;5053257;28;20427;-66
2021/01/05 03:31:08;;;;;;;0.40;0.40;;;;;;;2.23;100.00;101196.63;5053519;28;20430;-66
2021/01/05 03:33:34;;;;;;;1.57;1.50;;;;;;;2.31;100.00;101187.47;5053400;28;20462;-66
2021/01/05 03:36:00;;;;;;;3.03;0.93;;;;;;;2.30;100.00;101185.00;5053097;28;20450;-66
2021/01/05 03:38:27;;;;;;;29.27;2.43;;;;;;;2.29;100.00;101194.88;5053137;28;20814;-66
2021/01/05 03:40:53;;;;;;;0.40;0.30;;;;;;;2.31;100.00;101197.34;5053417;28;20442;-66
2021/01/05 03:43:19;;;;;;;0.90;0.80;;;;;;;2.38;100.00;101182.00;5053417;28;20564;-66
2021/01/05 03:45:45;;;;;;;1.27;0.83;;;;;;;2.34;100.00;101186.16;5053345;28;20483;-65
2021/01/05 03:48:12;;;;;;;6.73;1.53;;;;;;;2.36;100.00;101184.91;5053226;28;20447;-65
2021/01/05 03:50:38;;;;;;;1.10;0.97;;;;;;;2.41;100.00;101181.53;5053192;28;20469;-64
2021/01/05 03:53:04;;;;;;;0.60;0.60;;;;;;;2.49;100.00;101178.53;5053082;28;20520;-65
2021/01/05 03:55:31;;;;;;;0.40;0.30;;;;;;;2.56;100.00;101175.72;5052859;28;20450;-65
2021/01/05 03:57:57;;;;;;;0.40;0.30;;;;;;;2.55;100.00;101182.94;5053173;28;20442;-66
2021/01/05 04:00:26;;;;;;;1.67;0.43;;;;;;;2.59;100.00;101184.09;5052888;28;20441;-66
2021/01/05 04:02:53;;;;;;;2.17;0.60;;;;;;;2.57;100.00;101188.88;5053028;28;20457;-66
2021/01/05 04:05:21;;;;;;;1.10;0.70;;;;;;;2.62;100.00;101183.63;5053077;28;20931;-65
2021/01/05 04:07:47;;;;;;;0.50;0.50;;;;;;;2.63;100.00;101177.25;5053226;28;20477;-66
2021/01/05 04:10:14;;;;;;;5.13;2.63;;;;;;;2.69;100.00;101184.31;5052788;28;20951;-66
2021/01/05 04:12:41;;;;;;;0.50;0.40;;;;;;;2.72;100.00;101183.84;5052592;28;20517;-65
2021/01/05 04:15:10;;;;;;;1.57;1.23;;;;;;;2.72;100.00;101188.41;5052974;28;20465;-66
2021/01/05 04:17:36;;;;;;;0.40;0.20;;;;;;;2.68;100.00;101188.03;5052714;28;20472;-66
2021/01/05 04:20:04;;;;;;;1.80;0.90;;;;;;;2.57;100.00;101186.22;5053004;28;20445;-67
2021/01/05 04:22:31;;;;;;;1.73;0.73;;;;;;;2.47;100.00;101191.28;5056264;28;20480;-67
2021/01/05 04:24:58;;;;;;;4.20;0.80;;;;;;;2.46;100.00;101195.03;5057043;28;20447;-65
2021/01/05 04:27:24;;;;;;;5.13;2.10;;;;;;;2.43;100.00;101198.16;5056930;28;20446;-66
2021/01/05 04:29:50;;;;;;;0.60;0.50;;;;;;;2.47;100.00;101191.28;5056616;28;20955;-66
2021/01/05 04:32:16;;;;;;;0.40;0.33;;;;;;;2.49;100.00;101194.56;5056835;28;20527;-66
2021/01/05 04:34:42;;;;;;;0.63;0.50;;;;;;;2.52;100.00;101194.09;5056428;28;20469;-66
2021/01/05 04:37:08;;;;;;;1.83;0.90;;;;;;;2.55;100.00;101198.97;5056787;28;20438;-66
2021/01/05 04:39:35;;;;;;;0.50;0.50;;;;;;;2.38;100.00;101192.69;5056775;28;20522;-66
2021/01/05 04:42:10;;;;;;;0.60;0.60;;;;;;;2.30;100.00;101190.34;5056756;28;20445;-66
2021/01/05 04:44:54;;;;;;;0.40;0.30;;;;;;;2.41;100.00;101197.59;5056732;28;20470;-66
2021/01/05 04:47:30;;;;;;;0.60;0.47;;;;;;;2.42;100.00;101193.84;5056741;28;20434;-66
2021/01/05 04:50:10;;;;;;;0.50;0.40;;;;;;;2.40;100.00;101190.63;5056614;28;20431;-66
2021/01/05 04:52:44;;;;;;;4.40;1.83;;;;;;;2.33;100.00;101195.25;5056470;28;20461;-65
2021/01/05 04:55:26;;;;;;;0.40;0.20;;;;;;;2.38;100.00;101192.69;5056347;28;20921;-66
2021/01/05 04:58:03;;;;;;;0.40;0.30;;;;;;;2.42;100.00;101193.84;5056163;28;20966;-67
2021/01/05 05:00:29;;;;;;;0.40;0.30;;;;;;;2.47;100.00;101193.97;5056421;28;20574;-66
2021/01/05 05:03:06;;;;;;;0.40;0.20;;;;;;;2.46;100.00;101195.03;5056231;28;20514;-66
2021/01/05 05:06:07;;;;;;;1.00;0.80;;;;;;;2.52;100.00;101186.06;5056266;28;20504;-65
2021/01/05 05:08:41;;;;;;;0.40;0.30;;;;;;;2.47;100.00;101202.00;5034053;28;20457;-66
2021/01/05 05:11:13;;;;;;;0.67;0.50;;;;;;;2.39;100.00;101196.97;5055858;28;20422;-66
2021/01/05 05:13:47;;;;;;;0.40;0.30;;;;;;;2.37;100.00;101194.56;5056083;28;20465;-66
2021/01/05 05:16:27;;;;;;;1.47;1.37;;;;;;;2.45;100.00;101188.06;5055839;28;20429;-67
2021/01/05 05:19:04;;;;;;;0.87;0.87;;;;;;;2.40;100.00;101185.25;5056034;28;20423;-65
2021/01/05 05:21:36;;;;;;;1.53;1.43;;;;;;;2.35;100.00;101188.63;5055869;28;20416;-66
2021/01/05 05:24:23;;;;;;;0.80;0.77;;;;;;;2.35;100.00;101187.81;5055618;28;20567;-66
2021/01/05 05:26:58;;;;;;;0.40;0.30;;;;;;;2.31;100.00;101175.97;5055647;28;20968;-66
2021/01/05 05:29:47;;;;;;;0.50;0.40;;;;;;;2.32;100.00;101172.25;5055859;28;20453;-66
2021/01/05 05:32:28;;;;;;;0.60;0.60;;;;;;;2.32;100.00;101181.06;5052232;28;20889;-65
2021/01/05 05:34:59;;;;;;;0.63;0.60;;;;;;;2.39;100.00;101183.63;5055719;28;20434;-66
2021/01/05 05:37:42;;;;;;;0.40;0.30;;;;;;;2.43;100.00;101188.25;5055430;28;20888;-66
2021/01/05 05:40:26;;;;;;;0.40;0.30;;;;;;;2.44;100.00;101181.09;5055683;28;20822;-66
2021/01/05 05:43:13;;;;;;;2.60;1.17;;;;;;;2.31;100.00;101173.28;5055248;28;20464;-65
2021/01/05 05:45:44;;;;;;;0.63;0.60;;;;;;;2.27;100.00;101175.59;5055639;28;20422;-66
2021/01/05 05:48:21;;;;;;;2.63;0.80;;;;;;;2.27;100.00;101171.06;5055483;28;20532;-66
2021/01/05 05:51:07;;;;;;;0.83;0.57;;;;;;;2.34;100.00;101176.28;5055514;28;20457;-66
2021/01/05 05:53:39;;;;;;;1.43;1.10;;;;;;;2.37;100.00;101167.00;5055327;28;20466;-66
2021/01/05 05:56:10;;;;;;;0.40;0.30;;;;;;;2.38;100.00;101176.66;5055338;28;20421;-65
2021/01/05 05:58:40;;;;;;;0.83;0.77;;;;;;;2.38;100.00;101182.00;5055307;28;20469;-66
2021/01/05 06:01:11;;;;;;;0.53;0.53;;;;;;;2.39;100.00;101179.09;5055224;28;20478;-66
2021/01/05 06:03:38;;;;;;;0.40;0.30;;;;;;;2.43;100.00;101174.09;5055128;28;20465;-66
2021/01/05 06:06:04;;;;;;;0.40;0.40;;;;;;;2.51;100.00;101176.41;5055182;28;20434;-66
2021/01/05 06:08:30;;;;;;;0.70;0.43;;;;;;;2.53;100.00;101179.69;5054779;28;20484;-67
2021/01/05 06:10:57;;;;;;;0.53;0.50;;;;;;;2.50;100.00;101180.16;5055025;28;20810;-66
2021/01/05 06:13:23;;;;;;;0.50;0.47;;;;;;;2.46;100.00;101178.97;5054864;28;20490;-66
2021/01/05 06:15:50;;;;;;;0.40;0.27;;;;;;;2.50;100.00;101191.66;5054935;28;20448;-69
2021/01/05 06:18:18;;;;;;;2.20;1.90;;;;;;;2.51;100.00;101181.75;5054950;28;20466;-70
2021/01/05 06:20:45;;;;;;;0.40;0.40;;;;;;;2.44;100.00;101192.59;5054945;28;20453;-67
2021/01/05 06:23:11;;;;;;;0.40;0.30;;;;;;;2.48;100.00;101191.09;5054287;28;21001;-66
2021/01/05 06:25:37;;;;;;;0.40;0.30;;;;;;;2.53;100.00;101188.53;5054489;28;20513;-67
2021/01/05 06:28:05;;;;;;;0.60;0.50;;;;;;;2.51;100.00;101190.59;5054783;28;20520;-67
2021/01/05 06:30:31;;;;;;;0.60;0.50;;;;;;;2.53;100.00;101191.19;5054395;28;20460;-66
2021/01/05 06:32:58;;;;;;;0.60;0.50;;;;;;;2.58;100.00;101187.81;5054142;28;20489;-66
2021/01/05 06:35:25;;;;;;;1.20;1.10;;;;;;;2.55;100.00;101185.59;5054610;28;20466;-67
2021/01/05 06:37:52;;;;;;;1.23;0.53;;;;;;;2.59;100.00;101194.78;5054496;28;20477;-67
2021/01/05 06:40:20;;;;;;;0.40;0.30;;;;;;;2.63;100.00;101195.97;5054189;28;20927;-66
2021/01/05 06:42:47;;;;;;;4.43;0.80;;;;;;;2.53;100.00;101193.06;5054013;28;20830;-67
2021/01/05 06:45:17;;;;;;;0.50;0.40;;;;;;;2.56;100.00;101192.56;5053416;28;20865;-66
2021/01/05 06:47:43;;;;;;;0.97;0.90;;;;;;;2.55;100.00;101192.81;5054667;28;20902;-66
2021/01/05 06:50:12;;;;;;;0.40;0.30;;;;;;;2.57;100.00;101191.56;5054267;28;20469;-66
2021/01/05 06:52:38;;;;;;;0.63;0.53;;;;;;;2.54;100.00;101197.34;5053903;28;20517;-66
2021/01/05 06:55:06;;;;;;;0.80;0.70;;;;;;;2.49;100.00;101195.38;5054201;28;20477;-66
2021/01/05 06:57:32;;;;;;;2.27;0.90;;;;;;;2.53;100.00;101191.19;5054366;28;20478;-66
2021/01/05 06:59:58;;;;;;;1.63;1.23;;;;;;;2.53;100.00;101191.19;5054155;28;20495;-67
2021/01/05 07:02:24;;;;;;;1.50;0.50;;;;;;;2.33;100.00;101195.25;5054048;28;20441;-67
2021/01/05 07:04:50;;;;;;;1.37;1.17;;;;;;;2.34;100.00;101192.31;5054030;28;20474;-67
2021/01/05 07:07:17;;;;;;;3.17;1.60;;;;;;;2.30;100.00;101201.03;5053762;28;20480;-67
2021/01/05 07:09:44;;;;;;;0.40;0.40;;;;;;;2.38;100.00;101208.72;5053917;28;20477;-67
2021/01/05 07:12:10;;;;;;;1.20;1.00;;;;;;;2.40;100.00;101202.13;5053848;28;20521;-67
2021/01/05 07:14:36;;;;;;;0.40;0.30;;;;;;;2.47;100.00;101196.66;5053548;28;20493;-67
2021/01/05 07:17:02;;;;;;;2.83;1.80;;;;;;;2.45;100.00;101196.88;5053475;28;20952;-67
2021/01/05 07:19:29;;;;;;;0.80;0.73;;;;;;;2.50;100.00;101202.34;5053819;28;20434;-67
2021/01/05 07:21:55;;;;;;;0.63;0.60;;;;;;;2.56;100.00;101195.25;5053692;28;20438;-67
2021/01/05 07:24:22;;;;;;;0.40;0.30;;;;;;;2.62;100.00;101202.34;5053278;28;20595;-67
2021/01/05 07:26:50;;;;;;;2.93;0.70;;;;;;;2.57;100.00;101206.75;5053587;28;20517;-66
2021/01/05 07:29:19;;;;;;;0.60;0.57;;;;;;;2.40;100.00;101203.97;5053676;28;20449;-66
2021/01/05 07:31:46;;;;;;;1.87;1.33;;;;;;;2.49;100.00;101206.06;5053433;28;20611;-66
2021/01/05 07:34:13;;;;;;;0.40;0.40;;;;;;;2.56;100.00;101200.59;5053423;28;20489;-66
2021/01/05 07:36:42;;;;;;;1.53;1.43;;;;;;;2.59;100.00;101205.50;5053025;28;20920;-66
2021/01/05 07:39:14;;;;;;;0.70;0.57;;;;;;;2.59;100.00;101213.50;5052894;28;20809;-66
2021/01/05 07:41:41;;;;;;;0.50;0.40;;;;;;;2.53;100.00;101215.25;5053161;28;20900;-66
2021/01/05 07:44:07;;;;;;;0.83;0.50;;;;;;;2.54;100.00;101210.72;5052793;28;20458;-67
2021/01/05 07:46:33;;;;;;;8.43;1.70;;;;;;;2.55;100.00;101209.66;5053229;28;20480;-67
2021/01/05 07:48:59;;;;;;;1.47;0.80;;;;;;;2.61;100.00;101211.44;5053133;28;20940;-66
2021/01/05 07:51:25;;;;;;;2.63;0.93;;;;;;;2.63;100.00;101212.00;5053060;28;20490;-67
2021/01/05 07:53:51;;;;;;;0.40;0.27;;;;;;;2.57;100.00;101212.94;5052988;28;20465;-66
2021/01/05 07:56:18;;;;;;;0.40;0.40;;;;;;;2.60;100.00;101220.47;5051807;28;20449;-66
2021/01/05 07:58:45;;;;;;;1.53;0.67;;;;;;;2.62;100.00;101210.38;5052701;28;20450;-65
2021/01/05 08:01:11;;;;;;;3.43;0.73;;;;;;;2.65;100.00;101214.44;5053024;28;20507;-66
2021/01/05 08:03:37;;;;;;;11.60;1.50;;;;;;;2.70;100.00;101206.53;5055152;28;20483;-66
2021/01/05 08:06:05;;;;;;;2.37;1.03;;;;;;;2.70;100.00;101211.88;5072662;28;20438;-66
2021/01/05 08:08:34;;;;;;;0.40;0.30;;;;;;;2.65;100.00;101215.25;5072604;28;20483;-70
2021/01/05 08:11:00;;;;;;;0.70;0.50;;;;;;;2.69;100.00;101213.72;5072886;28;20432;-70
2021/01/05 08:13:26;;;;;;;2.50;2.30;;;;;;;2.69;100.00;101215.59;5072900;28;20550;-68
2021/01/05 08:15:54;;;;;;;1.27;1.17;;;;;;;2.72;100.00;101215.94;5073018;28;20488;-68
2021/01/05 08:18:20;;;;;;;4.20;1.17;;;;;;;2.66;100.00;101210.75;5072671;28;20452;-68
2021/01/05 08:20:46;;;;;;;1.10;0.73;;;;;;;2.70;100.00;101211.88;5072780;28;20444;-68
2021/01/05 08:23:13;;;;;;;1.57;0.57;;;;;;;2.62;100.00;101215.72;5072313;28;21004;-69
2021/01/05 08:25:40;;;;;;;0.40;0.20;;;;;;;2.60;100.00;101207.09;5072517;28;20456;-68
2021/01/05 08:28:06;;;;;;;14.43;1.53;;;;;;;2.60;100.00;101211.66;5072512;28;20444;-68
2021/01/05 08:30:34;;;;;;;2.20;1.03;;;;;;;2.63;100.00;101219.22;5072800;28;20472;-68
2021/01/05 08:33:04;;;;;;;0.60;0.57;;;;;;;2.66;100.00;101219.56;5072600;28;20528;-68
2021/01/05 08:35:30;;;;;;;0.40;0.40;;;;;;;2.68;100.00;101225.47;5072701;28;20464;-68
2021/01/05 08:37:57;;;;;;;3.03;2.73;;;;;;;2.72;100.00;101220.50;5072739;28;20521;-68
2021/01/05 08:40:27;;;;;;;2.20;1.03;;;;;;;2.64;100.00;101218.97;5072896;28;20789;-70
2021/01/05 08:42:53;;;;;;;1.80;0.80;;;;;;;2.70;100.00;101227.91;5072608;28;20461;-68
2021/01/05 08:45:20;;;;;;;0.40;0.30;;;;;;;2.74;100.00;101235.25;5072623;28;20472;-68
2021/01/05 08:47:47;;;;;;;1.03;1.03;;;;;;;2.75;100.00;101241.44;5072078;28;20448;-70
2021/01/05 08:50:20;;;;;;;0.40;0.30;;;;;;;2.78;100.00;101236.41;5052569;28;20470;-69
2021/01/05 08:52:46;;;;;;;1.90;1.70;;;;;;;2.68;100.00;101233.50;5052409;28;20517;-68
2021/01/05 08:55:13;;;;;;;1.43;1.33;;;;;;;2.78;100.00;101232.91;5052408;28;20456;-68
2021/01/05 08:57:39;;;;;;;0.50;0.40;;;;;;;2.81;100.00;101237.00;5052460;28;20495;-69
2021/01/05 09:00:07;;;;;;;1.20;0.47;;;;;;;2.88;100.00;101225.16;5052413;28;20442;-69
2021/01/05 09:02:33;;;;;;;9.97;2.13;;;;;;;2.87;100.00;101228.84;5052310;28;20519;-68
2021/01/05 09:05:00;;;;;;;1.73;1.27;;;;;;;2.82;100.00;101227.94;5052414;28;20478;-69
2021/01/05 09:07:27;;;;;;;5.50;1.30;;;;;;;2.85;100.00;101230.16;5062745;28;20577;-68
2021/01/05 09:09:53;;;;;;;0.70;0.50;;;;;;;2.88;100.00;101235.00;5076132;28;20465;-68
2021/01/05 09:12:19;;;;;;;2.90;1.37;;;;;;;2.91;100.00;101231.88;5075983;28;20530;-68
2021/01/05 09:14:45;;;;;;;0.40;0.33;;;;;;;2.92;100.00;101228.13;5075913;28;20890;-68
2021/01/05 09:17:12;;;;;;;0.93;0.93;;;;;;;2.88;100.00;101224.31;5075921;28;20493;-68
2021/01/05 09:19:39;;;;;;;0.60;0.40;;;;;;;2.89;100.00;101228.63;5075793;28;20806;-67
2021/01/05 09:22:06;;;;;;;0.80;0.63;;;;;;;2.94;100.00;101231.41;5076043;28;20461;-69
2021/01/05 09:24:33;;;;;;;2.70;0.57;;;;;;;2.96;100.00;101221.28;5101849;22;20487;-78
2021/01/05 09:26:59;;;;;;;4.43;1.40;;;;;;;3.02;100.00;101220.34;5076982;28;20464;-76
2021/01/05 09:29:26;;;;;;;0.40;0.30;;;;;;;3.00;100.00;101227.78;5076443;28;20536;-77
2021/01/05 09:31:56;;;;;;;1.83;0.70;;;;;;;3.09;100.00;101230.91;5076650;28;20481;-78
2021/01/05 09:34:24;;;;;;;0.40;0.30;;;;;;;3.14;100.00;101228.34;5086802;23;20576;-64
2021/01/05 09:36:51;;;;;;;2.00;0.73;;;;;;;3.13;100.00;101227.53;5076297;28;20445;-65
2021/01/05 09:39:20;;;;;;;0.40;0.30;;;;;;;3.07;100.00;101223.13;5075712;28;20476;-64
2021/01/05 09:41:50;;;;;;;2.20;0.93;;;;;;;3.05;100.00;101222.53;5077328;28;20480;-65
2021/01/05 09:44:17;;;;;;;1.03;0.97;;;;;;;2.99;100.00;101216.28;5077504;28;20497;-65
2021/01/05 09:46:49;;;;;;;2.33;1.10;;;;;;;3.03;100.00;101211.28;5077322;28;20437;-63
2021/01/05 09:49:15;;;;;;;0.47;0.37;;;;;;;3.09;100.00;101213.00;5077065;28;20443;-64
2021/01/05 09:51:42;;;;;;;2.00;0.53;;;;;;;3.13;100.00;101214.16;5077031;28;20429;-64
2021/01/05 09:54:08;;;;;;;0.60;0.40;;;;;;;3.09;99.93;101212.19;5076379;28;20466;-64
2021/01/05 09:56:34;;;;;;;0.40;0.30;;;;;;;3.07;99.70;101201.72;5077960;28;20444;-64
2021/01/05 09:59:02;;;;;;;0.40;0.30;;;;;;;2.89;99.24;101212.56;5077660;28;20453;-64
2021/01/05 10:01:30;;;;;;;0.47;0.37;;;;;;;2.96;99.77;101206.03;5077205;28;20448;-62
2021/01/05 10:03:56;;;;;;;0.40;0.30;;;;;;;3.03;99.88;101205.94;5076362;28;20488;-63
2021/01/05 10:06:28;;;;;;;0.70;0.67;;;;;;;3.06;99.68;101204.66;5076989;28;20449;-63
2021/01/05 10:08:54;;;;;;;0.53;0.53;;;;;;;3.03;99.58;101203.25;5076847;28;20434;-63
2021/01/05 10:11:20;;;;;;;0.70;0.70;;;;;;;3.05;99.63;101201.13;5076952;28;20449;-63
2021/01/05 10:13:46;;;;;;;1.47;0.60;;;;;;;2.87;100.00;101201.28;5076951;28;20481;-63
2021/01/05 10:16:13;;;;;;;0.80;0.53;;;;;;;2.99;100.00;101199.41;5076823;28;20942;-63
2021/01/05 10:18:40;;;;;;;2.30;0.80;;;;;;;3.06;100.00;101202.78;5076170;28;20495;-62
2021/01/05 10:21:06;;;;;;;0.50;0.40;;;;;;;3.15;100.00;101190.66;5077310;28;20485;-63
2021/01/05 10:23:32;;;;;;;0.40;0.30;;;;;;;3.22;100.00;101187.84;5077016;28;20794;-64
2021/01/05 10:25:58;;;;;;;0.70;0.70;;;;;;;3.27;100.00;101195.97;5077071;28;20438;-63
2021/01/05 10:28:24;;;;;;;7.13;1.07;;;;;;;3.33;100.00;101186.19;5076712;28;20464;-63
2021/01/05 10:30:51;;;;;;;1.90;1.37;;;;;;;3.27;100.00;101186.06;5077073;28;20484;-62
2021/01/05 10:33:18;;;;;;;0.50;0.47;;;;;;;3.32;100.00;101184.53;5076578;28;20492;-63
2021/01/05 10:35:44;;;;;;;6.03;1.33;;;;;;;3.21;100.00;101187.03;5076692;28;20461;-63
2021/01/05 10:38:10;;;;;;;0.40;0.30;;;;;;;2.99;100.00;101194.06;5076465;28;20441;-63
2021/01/05 10:40:36;;;;;;;2.30;1.37;;;;;;;2.99;100.00;101181.50;5076912;28;20449;-63
2021/01/05 10:43:02;;;;;;;0.40;0.30;;;;;;;3.09;100.00;101183.56;5076358;28;20473;-62
2021/01/05 10:45:29;;;;;;;0.70;0.60;;;;;;;3.04;100.00;101186.94;5076343;28;20859;-63
2021/01/05 10:47:55;;;;;;;1.03;0.80;;;;;;;3.12;100.00;101179.59;5076453;28;20509;-63
2021/01/05 10:50:25;;;;;;;0.40;0.27;;;;;;;3.17;100.00;101180.50;5077875;28;20448;-63
2021/01/05 10:52:52;;;;;;;2.57;2.40;;;;;;;3.15;100.00;101173.78;5077486;28;20481;-63
2021/01/05 10:55:20;;;;;;;1.10;1.07;;;;;;;3.12;100.00;101174.25;5076698;28;20971;-63
2021/01/05 10:57:48;;;;;;;0.40;0.30;;;;;;;3.12;100.00;101175.06;5076732;28;20444;-62
2021/01/05 11:00:17;;;;;;;1.73;0.53;;;;;;;3.05;100.00;101174.38;5076231;28;20534;-64
2021/01/05 11:02:43;;;;;;;1.00;0.63;;;;;;;2.98;100.00;101176.38;5075965;28;20434;-64
2021/01/05 11:05:13;;;;;;;1.90;0.70;;;;;;;3.06;100.00;101173.34;5074819;28;20972;-64
2021/01/05 11:07:41;;;;;;;1.17;0.70;;;;;;;3.11;100.00;101170.78;5075399;28;20532;-64
2021/01/05 11:10:09;;;;;;;0.40;0.40;;;;;;;2.94;100.00;101168.00;5074904;28;20514;-64
2021/01/05 11:12:35;;;;;;;0.57;0.57;;;;;;;2.96;100.00;101165.09;5075445;28;20572;-63
2021/01/05 11:15:01;;;;;;;0.40;0.30;;;;;;;3.03;100.00;101160.44;5074867;28;20465;-63
2021/01/05 11:17:27;;;;;;;0.40;0.30;;;;;;;3.01;100.00;101159.84;5075258;28;20445;-65
2021/01/05 11:19:53;;;;;;;0.40;0.30;;;;;;;3.04;100.00;101151.34;5074773;28;20441;-64
2021/01/05 11:22:20;;;;;;;0.60;0.40;;;;;;;3.10;100.00;101155.78;5075546;28;20443;-64
2021/01/05 11:24:47;;;;;;;0.60;0.43;;;;;;;3.15;100.00;101153.19;5074980;28;20456;-63
2021/01/05 11:27:15;;;;;;;2.30;2.20;;;;;;;3.12;100.00;101147.50;5074437;28;20931;-64
2021/01/05 11:29:43;;;;;;;1.73;1.43;;;;;;;3.15;100.00;101147.84;5074513;28;20446;-64
2021/01/05 11:32:12;;;;;;;0.40;0.30;;;;;;;3.12;100.00;101142.94;5075229;28;20484;-63
2021/01/05 11:34:39;;;;;;;1.13;0.90;;;;;;;3.11;100.00;101149.38;5073938;28;21032;-64
2021/01/05 11:37:07;;;;;;;0.50;0.50;;;;;;;3.13;100.00;101141.09;5075145;28;20958;-64